Terminal Aerodrome Forecast
Issued by NWS

Home | Current Version | Previous Version | Text Only | Print | Product List | Glossary On
Versions: 1 2 3 4 5 6 7 8 9 10 11 12 13 14 15
000
FTAK31 PAJN 141736
TAFASI
TAF
PASI 141736Z 1418/1518 18018G30KT 4SM -RA BR SCT015 OVC025
      WS020/20035KT
      TEMPO 1418/1421 2SM SHRA BR BKN015
     FM142100 20015G25KT 6SM -SHRA BR SCT025 OVC035
      TEMPO 1421/1424 3SM SHRA BR BKN020
     FM150000 22015G25KT P6SM -SHRA SCT020 OVC035
     FM150600 20012KT P6SM -SHRA BKN025 OVC050
     FM151000 19010KT P6SM -SHRA SCT025 OVC050=

USA.gov is the U.S. government's official web portal to all federal, state and local government web resources and services.